sensor_id;sensor_type;location;lat;lon;timestamp;pressure;altitude;pressure_sealevel;temperature;humidity
2841;BME280;53423;49.224;12.074;2023-05-08T00:01:48;98123.00;;;13.62;56.02
2841;BME280;53423;49.224;12.074;2023-05-08T00:04:16;98119.63;;;13.54;56.22
2841;BME280;53423;49.224;12.074;2023-05-08T00:06:46;98114.63;;;13.28;56.55
2841;BME280;53423;49.224;12.074;2023-05-08T00:09:14;98118.34;;;13.42;56.93
2841;BME280;53423;49.224;12.074;2023-05-08T00:11:43;98112.94;;;13.35;57.54
2841;BME280;53423;49.224;12.074;2023-05-08T00:14:11;98113.09;;;13.42;56.41
2841;BME280;53423;49.224;12.074;2023-05-08T00:16:39;98120.25;;;13.56;57.04
2841;BME280;53423;49.224;12.074;2023-05-08T00:19:07;98121.84;;;13.65;57.27
2841;BME280;53423;49.224;12.074;2023-05-08T00:21:35;98131.25;;;13.59;56.85
2841;BME280;53423;49.224;12.074;2023-05-08T00:24:03;98133.28;;;13.49;57.38
2841;BME280;53423;49.224;12.074;2023-05-08T00:26:31;98123.53;;;13.58;56.26
2841;BME280;53423;49.224;12.074;2023-05-08T00:29:00;98134.59;;;13.53;56.35
2841;BME280;53423;49.224;12.074;2023-05-08T00:31:30;98132.97;;;13.44;56.87
2841;BME280;53423;49.224;12.074;2023-05-08T00:33:58;98130.72;;;13.33;56.37
2841;BME280;53423;49.224;12.074;2023-05-08T00:36:26;98143.06;;;13.33;57.40
2841;BME280;53423;49.224;12.074;2023-05-08T00:38:54;98142.22;;;13.32;57.71
2841;BME280;53423;49.224;12.074;2023-05-08T00:41:22;98146.38;;;13.27;57.03
2841;BME280;53423;49.224;12.074;2023-05-08T00:43:50;98148.19;;;13.26;56.58
2841;BME280;53423;49.224;12.074;2023-05-08T00:46:19;98147.41;;;13.10;57.31
2841;BME280;53423;49.224;12.074;2023-05-08T00:48:47;98151.03;;;13.17;57.92
2841;BME280;53423;49.224;12.074;2023-05-08T00:51:15;98150.72;;;13.04;56.99
2841;BME280;53423;49.224;12.074;2023-05-08T00:53:44;98158.44;;;13.13;57.09
2841;BME280;53423;49.224;12.074;2023-05-08T00:56:13;98159.59;;;12.95;56.97
2841;BME280;53423;49.224;12.074;2023-05-08T00:58:42;98154.34;;;12.87;57.96
2841;BME280;53423;49.224;12.074;2023-05-08T01:01:11;98158.25;;;12.99;57.36
2841;BME280;53423;49.224;12.074;2023-05-08T01:03:42;98150.03;;;12.94;58.00
2841;BME280;53423;49.224;12.074;2023-05-08T01:06:10;98157.94;;;12.86;57.83
2841;BME280;53423;49.224;12.074;2023-05-08T01:08:38;98156.50;;;12.51;57.30
2841;BME280;53423;49.224;12.074;2023-05-08T01:11:12;98161.78;;;12.51;58.45
2841;BME280;53423;49.224;12.074;2023-05-08T01:13:51;98166.34;;;12.65;58.47
2841;BME280;53423;49.224;12.074;2023-05-08T01:16:30;98163.06;;;12.79;57.31
2841;BME280;53423;49.224;12.074;2023-05-08T01:19:10;98166.19;;;12.75;57.53
2841;BME280;53423;49.224;12.074;2023-05-08T01:21:48;98170.81;;;12.73;57.74
2841;BME280;53423;49.224;12.074;2023-05-08T01:24:57;98174.91;;;12.51;58.93
2841;BME280;53423;49.224;12.074;2023-05-08T01:27:55;98186.44;;;12.58;58.34
2841;BME280;53423;49.224;12.074;2023-05-08T01:30:48;98180.34;;;12.58;58.13
2841;BME280;53423;49.224;12.074;2023-05-08T01:33:27;98182.63;;;12.36;59.17
2841;BME280;53423;49.224;12.074;2023-05-08T01:35:59;98191.78;;;12.16;60.16
2841;BME280;53423;49.224;12.074;2023-05-08T01:38:39;98193.78;;;12.38;58.42
2841;BME280;53423;49.224;12.074;2023-05-08T01:41:13;98193.94;;;12.21;59.63
2841;BME280;53423;49.224;12.074;2023-05-08T01:43:49;98195.25;;;12.17;59.01
2841;BME280;53423;49.224;12.074;2023-05-08T01:46:23;98194.13;;;12.35;59.02
2841;BME280;53423;49.224;12.074;2023-05-08T01:48:58;98200.72;;;12.39;59.25
2841;BME280;53423;49.224;12.074;2023-05-08T01:51:27;98196.25;;;12.32;58.76
2841;BME280;53423;49.224;12.074;2023-05-08T01:54:05;98193.97;;;12.37;58.54
2841;BME280;53423;49.224;12.074;2023-05-08T01:56:36;98200.38;;;12.34;58.71
2841;BME280;53423;49.224;12.074;2023-05-08T01:59:05;98211.69;;;12.19;59.70
2841;BME280;53423;49.224;12.074;2023-05-08T02:01:34;98200.69;;;12.23;59.38
2841;BME280;53423;49.224;12.074;2023-05-08T02:04:05;98203.47;;;12.22;58.78
2841;BME280;53423;49.224;12.074;2023-05-08T02:06:36;98217.09;;;12.09;59.30
2841;BME280;53423;49.224;12.074;2023-05-08T02:09:07;98209.16;;;12.01;59.93
2841;BME280;53423;49.224;12.074;2023-05-08T02:11:37;98211.59;;;11.95;59.56
2841;BME280;53423;49.224;12.074;2023-05-08T02:14:07;98214.06;;;11.96;60.04
2841;BME280;53423;49.224;12.074;2023-05-08T02:16:36;98213.78;;;11.99;59.15
2841;BME280;53423;49.224;12.074;2023-05-08T02:19:07;98211.91;;;11.84;59.41
2841;BME280;53423;49.224;12.074;2023-05-08T02:21:36;98216.00;;;11.78;59.65
2841;BME280;53423;49.224;12.074;2023-05-08T02:24:05;98219.63;;;11.77;60.23
2841;BME280;53423;49.224;12.074;2023-05-08T02:26:35;98224.34;;;11.74;60.72
2841;BME280;53423;49.224;12.074;2023-05-08T02:29:04;98225.66;;;11.78;59.86
2841;BME280;53423;49.224;12.074;2023-05-08T02:31:34;98226.28;;;11.64;59.81
2841;BME280;53423;49.224;12.074;2023-05-08T02:34:08;98219.94;;;11.49;61.56
2841;BME280;53423;49.224;12.074;2023-05-08T02:36:38;98225.41;;;11.63;60.64
2841;BME280;53423;49.224;12.074;2023-05-08T02:39:07;98226.63;;;11.43;61.45
2841;BME280;53423;49.224;12.074;2023-05-08T02:41:39;98235.06;;;11.29;61.85
2841;BME280;53423;49.224;12.074;2023-05-08T02:44:08;98230.97;;;11.26;61.45
2841;BME280;53423;49.224;12.074;2023-05-08T02:46:44;98240.09;;;11.40;62.03
2841;BME280;53423;49.224;12.074;2023-05-08T02:49:24;98242.09;;;11.54;60.21
2841;BME280;53423;49.224;12.074;2023-05-08T02:51:59;98234.28;;;11.62;60.61
2841;BME280;53423;49.224;12.074;2023-05-08T02:54:35;98242.72;;;11.40;60.16
2841;BME280;53423;49.224;12.074;2023-05-08T02:57:09;98239.59;;;11.45;61.05
2841;BME280;53423;49.224;12.074;2023-05-08T02:59:43;98235.03;;;11.47;60.32
2841;BME280;53423;49.224;12.074;2023-05-08T03:02:16;98241.47;;;11.26;60.75
2841;BME280;53423;49.224;12.074;2023-05-08T03:04:48;98233.44;;;11.28;61.78
2841;BME280;53423;49.224;12.074;2023-05-08T03:07:19;98241.22;;;11.12;60.56
2841;BME280;53423;49.224;12.074;2023-05-08T03:09:52;98242.66;;;11.06;61.29
2841;BME280;53423;49.224;12.074;2023-05-08T03:12:25;98242.81;;;11.05;61.91
2841;BME280;53423;49.224;12.074;2023-05-08T03:14:59;98243.84;;;11.12;61.64
2841;BME280;53423;49.224;12.074;2023-05-08T03:17:31;98248.09;;;11.13;62.16
2841;BME280;53423;49.224;12.074;2023-05-08T03:20:03;98245.94;;;11.08;61.92
2841;BME280;53423;49.224;12.074;2023-05-08T03:22:34;98253.09;;;10.98;62.64
2841;BME280;53423;49.224;12.074;2023-05-08T03:25:04;98241.75;;;11.15;62.24
2841;BME280;53423;49.224;12.074;2023-05-08T03:27:34;98248.31;;;11.45;61.41
2841;BME280;53423;49.224;12.074;2023-05-08T03:30:04;98245.84;;;11.18;61.17
2841;BME280;53423;49.224;12.074;2023-05-08T03:32:33;98253.31;;;11.31;61.53
2841;BME280;53423;49.224;12.074;2023-05-08T03:35:04;98258.25;;;11.08;62.32
2841;BME280;53423;49.224;12.074;2023-05-08T03:37:33;98249.81;;;11.22;61.59
2841;BME280;53423;49.224;12.074;2023-05-08T03:40:01;98256.28;;;11.10;62.02
2841;BME280;53423;49.224;12.074;2023-05-08T03:42:30;98253.03;;;11.16;61.96
2841;BME280;53423;49.224;12.074;2023-05-08T03:44:58;98251.47;;;11.05;61.87
2841;BME280;53423;49.224;12.074;2023-05-08T03:47:27;98250.72;;;11.13;61.79
2841;BME280;53423;49.224;12.074;2023-05-08T03:49:56;98259.84;;;11.26;62.11
2841;BME280;53423;49.224;12.074;2023-05-08T03:52:25;98257.69;;;11.22;61.35
2841;BME280;53423;49.224;12.074;2023-05-08T03:54:53;98257.00;;;11.20;61.25
2841;BME280;53423;49.224;12.074;2023-05-08T03:57:21;98261.94;;;11.23;61.99
2841;BME280;53423;49.224;12.074;2023-05-08T04:00:00;98263.66;;;11.32;61.83
2841;BME280;53423;49.224;12.074;2023-05-08T04:02:35;98270.88;;;11.12;61.01
2841;BME280;53423;49.224;12.074;2023-05-08T04:05:14;98258.50;;;11.22;62.31
2841;BME280;53423;49.224;12.074;2023-05-08T04:07:51;98272.19;;;11.34;61.25
2841;BME280;53423;49.224;12.074;2023-05-08T04:10:23;98267.34;;;11.47;60.97
2841;BME280;53423;49.224;12.074;2023-05-08T04:13:02;98265.34;;;11.41;60.99
2841;BME280;53423;49.224;12.074;2023-05-08T04:15:48;98267.53;;;11.46;61.45
2841;BME280;53423;49.224;12.074;2023-05-08T04:18:21;98270.16;;;11.46;60.65
2841;BME280;53423;49.224;12.074;2023-05-08T04:20:53;98275.53;;;11.44;61.09
2841;BME280;53423;49.224;12.074;2023-05-08T04:23:23;98275.06;;;11.49;60.79
2841;BME280;53423;49.224;12.074;2023-05-08T04:25:52;98280.41;;;11.39;60.77
2841;BME280;53423;49.224;12.074;2023-05-08T04:28:22;98286.66;;;11.38;60.49
2841;BME280;53423;49.224;12.074;2023-05-08T04:30:50;98286.28;;;11.33;60.96
2841;BME280;53423;49.224;12.074;2023-05-08T04:33:18;98291.88;;;11.12;62.00
2841;BME280;53423;49.224;12.074;2023-05-08T04:35:47;98296.22;;;11.21;60.52
2841;BME280;53423;49.224;12.074;2023-05-08T04:38:15;98290.13;;;11.21;60.74
2841;BME280;53423;49.224;12.074;2023-05-08T04:40:44;98300.84;;;11.27;61.32
2841;BME280;53423;49.224;12.074;2023-05-08T04:43:12;98299.41;;;11.33;60.32
2841;BME280;53423;49.224;12.074;2023-05-08T04:45:40;98301.84;;;11.52;59.73
2841;BME280;53423;49.224;12.074;2023-05-08T04:48:08;98300.09;;;11.61;59.64
2841;BME280;53423;49.224;12.074;2023-05-08T04:50:36;98303.09;;;11.66;60.14
2841;BME280;53423;49.224;12.074;2023-05-08T04:53:04;98300.31;;;11.67;59.94
2841;BME280;53423;49.224;12.074;2023-05-08T04:55:32;98311.34;;;11.53;59.17
2841;BME280;53423;49.224;12.074;2023-05-08T04:58:01;98303.47;;;11.53;60.01
2841;BME280;53423;49.224;12.074;2023-05-08T05:00:29;98316.72;;;11.44;60.46
2841;BME280;53423;49.224;12.074;2023-05-08T05:02:57;98315.72;;;11.45;59.62
2841;BME280;53423;49.224;12.074;2023-05-08T05:05:25;98318.53;;;11.69;59.72
2841;BME280;53423;49.224;12.074;2023-05-08T05:07:53;98314.56;;;11.65;59.99
2841;BME280;53423;49.224;12.074;2023-05-08T05:10:21;98318.31;;;11.88;59.39
2841;BME280;53423;49.224;12.074;2023-05-08T05:12:48;98318.75;;;11.75;58.82
2841;BME280;53423;49.224;12.074;2023-05-08T05:15:18;98328.06;;;12.03;58.79
2841;BME280;53423;49.224;12.074;2023-05-08T05:17:46;98319.88;;;12.06;58.97
2841;BME280;53423;49.224;12.074;2023-05-08T05:20:14;98330.50;;;11.97;57.98
2841;BME280;53423;49.224;12.074;2023-05-08T05:22:42;98317.69;;;11.94;58.93
2841;BME280;53423;49.224;12.074;2023-05-08T05:25:10;98329.59;;;12.14;58.80
2841;BME280;53423;49.224;12.074;2023-05-08T05:27:38;98326.63;;;12.09;57.91
2841;BME280;53423;49.224;12.074;2023-05-08T05:30:07;98327.19;;;12.28;57.65
2841;BME280;53423;49.224;12.074;2023-05-08T05:32:36;98328.09;;;12.53;57.98
2841;BME280;53423;49.224;12.074;2023-05-08T05:35:05;98327.00;;;12.72;56.63
2841;BME280;53423;49.224;12.074;2023-05-08T05:37:33;98328.97;;;12.78;56.35
2841;BME280;53423;49.224;12.074;2023-05-08T05:40:02;98335.41;;;12.91;55.89
2841;BME280;53423;49.224;12.074;2023-05-08T05:42:30;98331.84;;;13.08;55.42
2841;BME280;53423;49.224;12.074;2023-05-08T05:44:58;98331.81;;;13.48;54.53
2841;BME280;53423;49.224;12.074;2023-05-08T05:47:27;98328.34;;;13.64;53.82
2841;BME280;53423;49.224;12.074;2023-05-08T05:49:57;98341.81;;;13.61;53.48
2841;BME280;53423;49.224;12.074;2023-05-08T05:52:25;98333.34;;;14.06;53.15
2841;BME280;53423;49.224;12.074;2023-05-08T05:54:53;98329.69;;;14.07;52.80
2841;BME280;53423;49.224;12.074;2023-05-08T05:57:21;98327.13;;;14.37;52.02
2841;BME280;53423;49.224;12.074;2023-05-08T05:59:49;98326.88;;;14.16;52.07
2841;BME280;53423;49.224;12.074;2023-05-08T06:02:19;98328.13;;;14.36;51.64
2841;BME280;53423;49.224;12.074;2023-05-08T06:04:47;98336.44;;;14.86;50.66
2841;BME280;53423;49.224;12.074;2023-05-08T06:07:19;98333.56;;;15.56;49.14
2841;BME280;53423;49.224;12.074;2023-05-08T06:09:47;98327.66;;;15.31;49.30
2841;BME280;53423;49.224;12.074;2023-05-08T06:12:16;98329.53;;;15.82;48.30
2841;BME280;53423;49.224;12.074;2023-05-08T06:14:44;98329.09;;;16.73;45.84
2841;BME280;53423;49.224;12.074;2023-05-08T06:17:12;98322.75;;;16.88;45.60
2841;BME280;53423;49.224;12.074;2023-05-08T06:19:40;98319.75;;;17.40;44.44
2841;BME280;53423;49.224;12.074;2023-05-08T06:22:08;98328.78;;;17.46;44.81
2841;BME280;53423;49.224;12.074;2023-05-08T06:24:37;98320.25;;;17.78;43.87
2841;BME280;53423;49.224;12.074;2023-05-08T06:27:05;98329.00;;;17.72;43.32
2841;BME280;53423;49.224;12.074;2023-05-08T06:29:33;98321.09;;;17.78;43.78
2841;BME280;53423;49.224;12.074;2023-05-08T06:32:01;98320.47;;;18.44;41.89
2841;BME280;53423;49.224;12.074;2023-05-08T06:34:29;98321.81;;;18.81;40.83
2841;BME280;53423;49.224;12.074;2023-05-08T06:36:57;98323.09;;;19.18;39.95
2841;BME280;53423;49.224;12.074;2023-05-08T06:39:25;98316.72;;;20.10;39.58
2841;BME280;53423;49.224;12.074;2023-05-08T06:41:54;98315.31;;;20.01;38.93
2841;BME280;53423;49.224;12.074;2023-05-08T06:44:22;98328.69;;;19.55;39.03
2841;BME280;53423;49.224;12.074;2023-05-08T06:46:50;98315.59;;;20.50;38.06
2841;BME280;53423;49.224;12.074;2023-05-08T06:49:18;98309.97;;;20.71;37.72
2841;BME280;53423;49.224;12.074;2023-05-08T06:51:46;98320.59;;;21.16;38.06
2841;BME280;53423;49.224;12.074;2023-05-08T06:54:14;98316.63;;;20.87;36.93
2841;BME280;53423;49.224;12.074;2023-05-08T06:56:44;98320.00;;;20.25;38.45
2841;BME280;53423;49.224;12.074;2023-05-08T06:59:14;98314.06;;;20.17;38.08
2841;BME280;53423;49.224;12.074;2023-05-08T07:01:42;98319.25;;;19.86;39.14
2841;BME280;53423;49.224;12.074;2023-05-08T07:04:09;98318.59;;;20.67;37.10
2841;BME280;53423;49.224;12.074;2023-05-08T07:06:38;98317.38;;;21.07;37.23
2841;BME280;53423;49.224;12.074;2023-05-08T07:09:05;98312.66;;;21.09;36.71
2841;BME280;53423;49.224;12.074;2023-05-08T07:11:33;98308.84;;;19.38;40.58
2841;BME280;53423;49.224;12.074;2023-05-08T07:14:01;98317.16;;;20.71;37.20
2841;BME280;53423;49.224;12.074;2023-05-08T07:16:30;98322.34;;;19.63;38.98
2841;BME280;53423;49.224;12.074;2023-05-08T07:18:59;98324.59;;;21.31;37.15
2841;BME280;53423;49.224;12.074;2023-05-08T07:21:26;98313.56;;;21.77;35.34
2841;BME280;53423;49.224;12.074;2023-05-08T07:23:55;98313.22;;;21.67;35.67
2841;BME280;53423;49.224;12.074;2023-05-08T07:26:23;98304.75;;;21.52;36.32
2841;BME280;53423;49.224;12.074;2023-05-08T07:28:51;98319.63;;;20.66;35.98
2841;BME280;53423;49.224;12.074;2023-05-08T07:31:20;98306.41;;;21.95;34.95
2841;BME280;53423;49.224;12.074;2023-05-08T07:33:49;98302.28;;;23.24;33.88
2841;BME280;53423;49.224;12.074;2023-05-08T07:36:17;98305.00;;;22.47;33.85
2841;BME280;53423;49.224;12.074;2023-05-08T07:38:45;98313.59;;;21.95;35.47
2841;BME280;53423;49.224;12.074;2023-05-08T07:41:13;98315.78;;;21.00;36.58
2841;BME280;53423;49.224;12.074;2023-05-08T07:43:41;98311.22;;;20.69;37.34
2841;BME280;53423;49.224;12.074;2023-05-08T07:46:15;98316.63;;;21.00;36.93
2841;BME280;53423;49.224;12.074;2023-05-08T07:48:43;98317.25;;;21.27;35.43
2841;BME280;53423;49.224;12.074;2023-05-08T07:51:12;98314.94;;;22.40;36.37
2841;BME280;53423;49.224;12.074;2023-05-08T07:53:40;98321.13;;;21.55;36.71
2841;BME280;53423;49.224;12.074;2023-05-08T07:56:08;98319.06;;;21.82;36.25
2841;BME280;53423;49.224;12.074;2023-05-08T07:58:39;98321.25;;;22.09;35.44
2841;BME280;53423;49.224;12.074;2023-05-08T08:01:08;98311.22;;;22.23;36.15
2841;BME280;53423;49.224;12.074;2023-05-08T08:03:35;98317.38;;;21.38;37.66
2841;BME280;53423;49.224;12.074;2023-05-08T08:06:04;98316.28;;;20.26;38.74
2841;BME280;53423;49.224;12.074;2023-05-08T08:08:33;98312.94;;;21.26;37.55
2841;BME280;53423;49.224;12.074;2023-05-08T08:11:01;98311.38;;;21.43;36.96
2841;BME280;53423;49.224;12.074;2023-05-08T08:13:29;98322.53;;;19.74;39.14
2841;BME280;53423;49.224;12.074;2023-05-08T08:15:58;98324.97;;;19.83;40.13
2841;BME280;53423;49.224;12.074;2023-05-08T08:18:26;98318.50;;;20.42;38.14
2841;BME280;53423;49.224;12.074;2023-05-08T08:20:54;98314.53;;;19.74;39.67
2841;BME280;53423;49.224;12.074;2023-05-08T08:23:22;98321.38;;;21.23;39.00
2841;BME280;53423;49.224;12.074;2023-05-08T08:25:51;98317.59;;;20.68;37.72
2841;BME280;53423;49.224;12.074;2023-05-08T08:28:19;98311.97;;;20.32;39.42
2841;BME280;53423;49.224;12.074;2023-05-08T08:30:48;98314.31;;;21.59;35.16
2841;BME280;53423;49.224;12.074;2023-05-08T08:33:16;98311.09;;;21.51;37.52
2841;BME280;53423;49.224;12.074;2023-05-08T08:35:44;98312.09;;;21.32;36.06
2841;BME280;53423;49.224;12.074;2023-05-08T08:38:15;98304.13;;;22.53;35.05
2841;BME280;53423;49.224;12.074;2023-05-08T08:40:43;98299.72;;;22.41;35.66
2841;BME280;53423;49.224;12.074;2023-05-08T08:43:12;98301.63;;;22.88;34.91
2841;BME280;53423;49.224;12.074;2023-05-08T08:45:40;98299.72;;;24.17;33.36
2841;BME280;53423;49.224;12.074;2023-05-08T08:48:09;98299.59;;;23.77;31.52
2841;BME280;53423;49.224;12.074;2023-05-08T08:50:41;98295.72;;;24.99;31.15
2841;BME280;53423;49.224;12.074;2023-05-08T08:53:14;98292.00;;;25.61;30.55
2841;BME280;53423;49.224;12.074;2023-05-08T08:55:45;98286.56;;;24.55;32.97
2841;BME280;53423;49.224;12.074;2023-05-08T08:58:22;98290.53;;;25.53;30.42
2841;BME280;53423;49.224;12.074;2023-05-08T09:00:52;98285.66;;;26.22;29.12
2841;BME280;53423;49.224;12.074;2023-05-08T09:03:21;98291.09;;;27.50;27.69
2841;BME280;53423;49.224;12.074;2023-05-08T09:05:50;98287.22;;;26.01;27.50
2841;BME280;53423;49.224;12.074;2023-05-08T09:08:18;98286.03;;;26.30;28.76
2841;BME280;53423;49.224;12.074;2023-05-08T09:10:46;98287.63;;;26.69;27.97
2841;BME280;53423;49.224;12.074;2023-05-08T09:13:14;98291.81;;;28.14;27.79
2841;BME280;53423;49.224;12.074;2023-05-08T09:15:46;98296.00;;;25.58;29.61
2841;BME280;53423;49.224;12.074;2023-05-08T09:18:14;98284.03;;;28.17;26.13
2841;BME280;53423;49.224;12.074;2023-05-08T09:20:43;98287.22;;;28.61;25.31
2841;BME280;53423;49.224;12.074;2023-05-08T09:23:11;98275.75;;;29.86;23.73
2841;BME280;53423;49.224;12.074;2023-05-08T09:25:43;98273.22;;;31.27;21.75
2841;BME280;53423;49.224;12.074;2023-05-08T09:28:15;98280.56;;;31.26;21.55
2841;BME280;53423;49.224;12.074;2023-05-08T09:30:55;98281.16;;;29.36;22.44
2841;BME280;53423;49.224;12.074;2023-05-08T09:33:24;98269.50;;;31.56;21.27
2841;BME280;53423;49.224;12.074;2023-05-08T09:35:54;98271.00;;;28.56;24.33
2841;BME280;53423;49.224;12.074;2023-05-08T09:38:31;98281.16;;;29.20;23.82
2841;BME280;53423;49.224;12.074;2023-05-08T09:41:07;98273.75;;;30.31;22.57
2841;BME280;53423;49.224;12.074;2023-05-08T09:43:35;98266.38;;;30.47;23.65
2841;BME280;53423;49.224;12.074;2023-05-08T09:46:21;98266.09;;;30.54;22.64
2841;BME280;53423;49.224;12.074;2023-05-08T09:48:51;98264.31;;;30.88;21.25
2841;BME280;53423;49.224;12.074;2023-05-08T09:51:21;98259.84;;;31.74;20.61
2841;BME280;53423;49.224;12.074;2023-05-08T09:53:50;98255.97;;;32.56;20.55
2841;BME280;53423;49.224;12.074;2023-05-08T09:56:33;98266.00;;;31.17;21.91
2841;BME280;53423;49.224;12.074;2023-05-08T09:59:02;98260.66;;;28.33;24.57
2841;BME280;53423;49.224;12.074;2023-05-08T10:01:34;98269.25;;;28.30;24.90
2841;BME280;53423;49.224;12.074;2023-05-08T10:04:02;98271.34;;;28.74;25.87
2841;BME280;53423;49.224;12.074;2023-05-08T10:06:31;98271.34;;;27.39;26.32
2841;BME280;53423;49.224;12.074;2023-05-08T10:09:10;98275.91;;;27.12;27.93
2841;BME280;53423;49.224;12.074;2023-05-08T10:11:39;98274.53;;;27.68;26.22
2841;BME280;53423;49.224;12.074;2023-05-08T10:14:07;98263.88;;;27.88;26.81
2841;BME280;53423;49.224;12.074;2023-05-08T10:16:40;98265.25;;;27.22;27.22
2841;BME280;53423;49.224;12.074;2023-05-08T10:19:12;98267.84;;;26.85;28.19
2841;BME280;53423;49.224;12.074;2023-05-08T10:21:46;98269.66;;;25.94;29.61
2841;BME280;53423;49.224;12.074;2023-05-08T10:24:16;98274.31;;;25.82;30.26
2841;BME280;53423;49.224;12.074;2023-05-08T10:26:51;98271.88;;;24.86;30.92
2841;BME280;53423;49.224;12.074;2023-05-08T10:29:40;98268.50;;;24.50;32.36
2841;BME280;53423;49.224;12.074;2023-05-08T10:32:10;98261.63;;;23.92;33.12
2841;BME280;53423;49.224;12.074;2023-05-08T10:34:43;98265.00;;;24.10;33.27
2841;BME280;53423;49.224;12.074;2023-05-08T10:37:12;98263.81;;;23.37;34.09
2841;BME280;53423;49.224;12.074;2023-05-08T10:39:41;98264.34;;;23.57;33.83
2841;BME280;53423;49.224;12.074;2023-05-08T10:42:12;98265.66;;;23.25;34.03
2841;BME280;53423;49.224;12.074;2023-05-08T10:44:40;98258.50;;;23.07;34.34
2841;BME280;53423;49.224;12.074;2023-05-08T10:47:16;98259.16;;;22.80;35.60
2841;BME280;53423;49.224;12.074;2023-05-08T10:49:54;98264.22;;;22.52;36.17
2841;BME280;53423;49.224;12.074;2023-05-08T10:52:32;98265.53;;;21.95;36.72
2841;BME280;53423;49.224;12.074;2023-05-08T10:55:24;98258.03;;;22.03;37.02
2841;BME280;53423;49.224;12.074;2023-05-08T10:58:01;98262.72;;;22.08;37.46
2841;BME280;53423;49.224;12.074;2023-05-08T11:00:31;98263.97;;;22.05;37.16
2841;BME280;53423;49.224;12.074;2023-05-08T11:03:15;98255.25;;;22.64;35.65
2841;BME280;53423;49.224;12.074;2023-05-08T11:05:59;98258.81;;;22.58;35.57
2841;BME280;53423;49.224;12.074;2023-05-08T11:08:28;98253.69;;;22.75;35.33
2841;BME280;53423;49.224;12.074;2023-05-08T11:11:04;98248.59;;;22.85;35.51
2841;BME280;53423;49.224;12.074;2023-05-08T11:13:35;98248.53;;;22.73;37.13
2841;BME280;53423;49.224;12.074;2023-05-08T11:16:04;98244.22;;;22.43;37.38
2841;BME280;53423;49.224;12.074;2023-05-08T11:18:35;98245.78;;;22.80;36.13
2841;BME280;53423;49.224;12.074;2023-05-08T11:21:19;98242.53;;;22.78;35.09
2841;BME280;53423;49.224;12.074;2023-05-08T11:23:55;98235.38;;;23.01;34.72
2841;BME280;53423;49.224;12.074;2023-05-08T11:26:38;98239.75;;;23.49;33.81
2841;BME280;53423;49.224;12.074;2023-05-08T11:29:15;98242.88;;;23.34;34.09
2841;BME280;53423;49.224;12.074;2023-05-08T11:31:50;98240.19;;;23.34;34.71
2841;BME280;53423;49.224;12.074;2023-05-08T11:34:45;98242.13;;;23.15;34.99
2841;BME280;53423;49.224;12.074;2023-05-08T11:37:18;98234.78;;;22.99;34.41
2841;BME280;53423;49.224;12.074;2023-05-08T11:39:46;98245.66;;;22.75;35.77
2841;BME280;53423;49.224;12.074;2023-05-08T11:42:33;98238.53;;;22.69;33.94
2841;BME280;53423;49.224;12.074;2023-05-08T11:45:03;98242.13;;;22.63;35.43
2841;BME280;53423;49.224;12.074;2023-05-08T11:47:39;98237.72;;;22.21;35.51
2841;BME280;53423;49.224;12.074;2023-05-08T11:50:10;98240.56;;;22.37;35.63
2841;BME280;53423;49.224;12.074;2023-05-08T11:52:40;98243.00;;;22.86;35.26
2841;BME280;53423;49.224;12.074;2023-05-08T11:55:10;98237.50;;;22.52;35.44
2841;BME280;53423;49.224;12.074;2023-05-08T11:57:41;98239.81;;;22.48;36.73
2841;BME280;53423;49.224;12.074;2023-05-08T12:00:10;98245.22;;;22.60;36.33
2841;BME280;53423;49.224;12.074;2023-05-08T12:02:40;98243.59;;;21.68;37.36
2841;BME280;53423;49.224;12.074;2023-05-08T12:05:09;98241.53;;;22.25;36.87
2841;BME280;53423;49.224;12.074;2023-05-08T12:07:41;98247.03;;;21.75;37.27
2841;BME280;53423;49.224;12.074;2023-05-08T12:10:10;98244.00;;;22.74;35.85
2841;BME280;53423;49.224;12.074;2023-05-08T12:12:38;98247.06;;;22.89;34.87
2841;BME280;53423;49.224;12.074;2023-05-08T12:15:08;98250.56;;;23.42;34.50
2841;BME280;53423;49.224;12.074;2023-05-08T12:17:36;98253.34;;;23.47;35.48
2841;BME280;53423;49.224;12.074;2023-05-08T12:20:13;98245.19;;;23.30;34.04
2841;BME280;53423;49.224;12.074;2023-05-08T12:22:49;98247.69;;;23.55;32.88
2841;BME280;53423;49.224;12.074;2023-05-08T12:25:18;98239.50;;;23.27;33.26
2841;BME280;53423;49.224;12.074;2023-05-08T12:27:47;98249.88;;;21.80;36.12
2841;BME280;53423;49.224;12.074;2023-05-08T12:30:15;98249.66;;;22.36;36.58
2841;BME280;53423;49.224;12.074;2023-05-08T12:32:45;98251.69;;;22.82;36.08
2841;BME280;53423;49.224;12.074;2023-05-08T12:35:15;98257.91;;;22.94;35.63
2841;BME280;53423;49.224;12.074;2023-05-08T12:37:44;98255.75;;;22.07;36.16
2841;BME280;53423;49.224;12.074;2023-05-08T12:40:24;98249.69;;;22.48;35.68
2841;BME280;53423;49.224;12.074;2023-05-08T12:42:52;98257.06;;;22.34;35.20
2841;BME280;53423;49.224;12.074;2023-05-08T12:45:22;98251.00;;;22.09;35.31
2841;BME280;53423;49.224;12.074;2023-05-08T12:48:00;98247.72;;;22.25;35.44
2841;BME280;53423;49.224;12.074;2023-05-08T12:50:33;98252.75;;;22.33;35.83
2841;BME280;53423;49.224;12.074;2023-05-08T12:53:02;98244.66;;;22.22;35.14
2841;BME280;53423;49.224;12.074;2023-05-08T12:55:32;98258.41;;;22.07;35.77
2841;BME280;53423;49.224;12.074;2023-05-08T12:58:03;98244.09;;;21.83;37.94
2841;BME280;53423;49.224;12.074;2023-05-08T13:01:27;98252.84;;;21.66;36.33
2841;BME280;53423;49.224;12.074;2023-05-08T13:03:55;98250.91;;;21.79;36.38
2841;BME280;53423;49.224;12.074;2023-05-08T13:06:28;98252.16;;;21.52;36.98
2841;BME280;53423;49.224;12.074;2023-05-08T13:08:57;98255.97;;;21.14;37.31
2841;BME280;53423;49.224;12.074;2023-05-08T13:11:29;98257.63;;;21.15;36.99
2841;BME280;53423;49.224;12.074;2023-05-08T13:13:58;98254.63;;;21.29;37.28
2841;BME280;53423;49.224;12.074;2023-05-08T13:16:28;98253.41;;;21.32;38.66
2841;BME280;53423;49.224;12.074;2023-05-08T13:18:56;98254.31;;;21.19;37.39
2841;BME280;53423;49.224;12.074;2023-05-08T13:21:24;98250.34;;;21.28;37.69